Mission Valley North (654, 13840) Station Data

Red Flag Warning: No
Fire Weather Zone: 243
SDGE Region: Beach Cities
Lat/Lon: 32.781/-117.138

Observations

Time Wind Speed/Gust Temp(F) RH Fuel Moist Fuel Temp(F) Dewpt(F) Tmax(F) Tmin(F) Accum Precip 10-min Precip SL Press(mb)
5/24 8:30am 283 2 G 5 62° 79% 16.6% 65.9° 56° 62.6° 59.2° - - 1010.0
5/24 8:20am 250 5 G 8 62° 80% 16.6% 67.08° 56° 62.5° 59.2° - - 1011.0
5/24 8:10am 223 3 G 7 61° 83% 16.7% 65.86° 56° 62.3° 59.2° - - 1010.0
5/24 8:00am 251 5 G 8 61° 83% 16.8% 64.16° 56° 62.2° 59.2° - - 1010.0
5/24 7:50am 268 4 G 9 62° 83% 16.8% 64.95° 56° 62.2° 59.2° - - 1010.0
5/24 7:40am 335 1 G 3 61° 85% 16.9% 64.8° 56° 61.6° 59.2° - - 1010.0
5/24 7:30am 319 2 G 5 61° 86% 16.9% 63.64° 56° 61.2° 59.2° - - 1010.0
5/24 7:20am 55 1 G 6 60° 87% 16.9% 63.38° 56° 61.1° 59.2° - - 1010.0
5/24 7:10am 10 3 G 5 60° 88% 16.9% 62.07° 56° 60.9° 59.2° - - 1010.0
5/24 6:50am 269 2 G 5 60° 88% 16.9% 61.68° 56° 60.9° 59.2° - - 1010.0
5/24 6:40am 250 3 G 6 60° 89% 16.9% 61.34° 57° 60.9° 59.2° - - 1010.0
5/24 6:30am 270 3 G 6 60° 89% 17% 61.22° 57° 60.9° 59.2° - - 1010.0
5/24 6:20am 265 1 G 5 60° 89% 17.1% 61.26° 57° 60.9° 59.2° - - 1010.0
5/24 6:10am 282 3 G 6 60° 89% 17.1% 60.97° 57° 60.9° 59.2° - - 1010.0
5/24 6:00am 264 3 G 6 60° 90% 17% 61.05° 57° 60.9° 59.2° - - 1010.0
5/24 5:50am 266 4 G 9 60° 91% 17% 60.87° 57° 60.9° 59.2° - - 1010.0
5/24 5:40am 285 2 G 5 60° 92% 16.9% 61.05° 57° 60.9° 59.2° - - 1009.0
5/24 5:30am 275 2 G 6 60° 92% 16.9% 60.78° 58° 60.9° 59.2° - - 1010.0
5/24 5:20am 282 2 G 4 60° 93% 17% 60.89° 58° 60.9° 59.2° - - 1010.0
5/24 5:10am 329 1 G 4 60° 93% 16.9% 60.54° 57° 60.9° 59.2° - - 1010.0
5/24 5:00am 46 3 G 5 60° 93% 16.9% 60.6° 57° 60.9° 59.2° - - 1009.0
5/24 4:50am 53 3 G 5 60° 92% 16.8% 60.86° 58° 60.9° 59.2° - - 1009.0
5/24 4:40am 52 4 G 7 60° 92% 16.8% 60.68° 58° 60.9° 59.2° - - 1009.0
5/24 4:30am 71 4 G 7 60° 93% 16.8% 60.74° 58° 60.9° 59.2° - - 1010.0
5/24 4:20am 46 4 G 8 60° 93% 16.7% 60.68° 57° 60.9° 59.2° - - 1010.0
5/24 4:10am 37 5 G 8 60° 92% 16.6% 60.52° 57° 60.9° 59.2° - - 1010.0
5/24 4:00am 56 3 G 7 60° 92% 16.6% 60.64° 57° 60.9° 59.2° - - 1010.0
5/24 3:50am 59 3 G 4 60° 92% 16.5% 60.89° 57° 60.9° 59.2° - - 1010.0
5/24 3:40am 49 1 G 4 60° 92% 16.5% 60.97° 57° 60.9° 59.2° - - 1010.0
5/24 3:30am 6 2 G 4 60° 92% 16.4% 61.11° 57° 60.9° 59.2° - - 1010.0
5/24 3:20am 26 1 G 2 60° 92% 16.4% 60.93° 57° 60.9° 59.2° - - 1010.0
5/24 3:10am 236 2 G 5 60° 92% 16.3% 61.07° 57° 60.9° 59.2° - - 1011.0
5/24 3:00am 263 2 G 5 60° 92% 16.3% 61.01° 57° 60.9° 59.2° - - 1011.0
5/24 2:50am 255 4 G 7 60° 92% 16.1% 60.95° 57° 60.9° 59.5° - - 1011.0
5/24 2:40am 265 3 G 6 60° 92% 16.2% 61.34° 58° 60.9° 59.5° - - 1010.0
5/24 2:30am 310 2 G 4 60° 91% 16.2% 61.54° 58° 60.9° 59.5° - - 1010.0
5/24 2:20am 255 2 G 3 60° 92% 16.1% 61.65° 58° 60.9° 59.5° - - 1010.0
5/24 2:10am 256 2 G 4 60° 92% 16.1% 61.75° 58° 60.9° 59.5° - - 1010.0
5/24 2:00am 283 1 G 4 60° 92% 16.1% 61.58° 58° 60.9° 59.5° - - 1011.0
5/24 1:50am 78 1 G 3 60° 93% 16% 61.36° 58° 60.9° 59.5° - - 1011.0
5/24 1:40am 37 2 G 4 60° 92% 15.9% 61.05° 58° 60.9° 59.5° - - 1011.0
5/24 1:30am 13 2 G 4 60° 92% 15.8% 61.36° 58° 60.9° 59.5° - - 1011.0
5/24 1:20am 14 2 G 4 60° 92% 15.8% 61.54° 58° 60.9° 59.5° - - 1011.0
5/24 1:10am 26 1 G 4 60° 93% 15.8% 61.54° 58° 60.9° 59.5° - - 1011.0
5/24 1:00am 196 1 G 3 60° 93% 15.7% 61.56° 58° 60.9° 59.5° - - 1011.0
5/24 12:50am 178 1 G 2 60° 93% 15.7% 61.22° 58° 60.9° 59.5° - - 1011.0
5/24 12:40am 37 2 G 5 60° 93% 15.6% 61.03° 58° 60.9° 59.5° - - 1011.0
5/24 12:30am 41 3 G 5 60° 92% 15.5% 61.24° 58° 60.9° 59.7° - - 1011.0
5/24 12:20am 6 2 G 6 60° 92% 15.5% 61.48° 58° 60.9° 59.7° - - 1011.0
5/24 12:10am 2 3 G 6 60° 92% 15.3% 61.28° 58° 60.9° 59.9° - - 1012.0
5/24 12:00am 344 2 G 4 60° 92% 15.1% 61.44° 58° 77° 58.4° - - 1012.0
5/23 11:50pm 313 2 G 3 60° 92% 15.2% 61.62° 58° 77° 58.4° - - 1012.0
5/23 11:40pm 312 2 G 4 60° 91% 15.2% 61.3° 58° 77° 58.4° - - 1012.0
5/23 11:30pm 290 3 G 7 61° 91% 15.1% 60.93° 58° 77° 58.4° - - 1012.0
5/23 11:20pm 273 3 G 5 61° 90% 14.9% 60.7° 58° 77° 58.4° - - 1012.0
5/23 11:10pm 271 3 G 7 61° 90% 14.9% 60.14° 58° 77° 58.4° - - 1012.0
5/23 11:00pm 265 4 G 6 61° 90% 14.7% 59.73° 58° 77° 58.4° - - 1012.0
5/23 10:50pm 274 3 G 5 61° 90% 14.6% 59.58° 58° 77° 58.4° - - 1012.0
5/23 10:40pm 274 3 G 5 61° 89% 14.5% 59.85° 58° 77° 58.4° - - 1012.0
5/23 10:30pm 286 3 G 5 61° 89% 14.4% 59.85° 58° 77° 58.4° - - 1012.0
5/23 10:20pm 275 3 G 5 61° 89% 14.3% 59.96° 58° 77° 58.4° - - 1012.0
5/23 10:10pm 274 3 G 6 61° 88% 14.2% 60.35° 58° 77° 58.4° - - 1012.0
5/23 10:00pm 259 4 G 6 62° 88% 14% 60.76° 58° 77° 58.4° - - 1011.0
5/23 9:50pm 269 2 G 5 62° 88% 14% 60.79° 58° 77° 58.4° - - 1011.0
5/23 9:40pm 284 3 G 5 62° 87% 13.7% 61.2° 58° 77° 58.4° - - 1011.0
5/23 9:30pm 268 3 G 6 63° 85% 13.6% 61.71° 58° 77° 58.4° - - 1011.0
5/23 9:20pm 274 3 G 5 63° 84% 13.5% 62.26° 58° 77° 58.4° - - 1011.0
5/23 9:10pm 268 3 G 6 64° 82% 13.4% 62.52° 58° 77° 58.4° - - 1011.0
5/23 9:00pm 261 4 G 6 64° 80% 13.3% 62.72° 58° 77° 58.4° - - 1011.0
5/23 8:50pm 278 2 G 5 64° 82% 13.2% 62.86° 58° 77° 58.4° - - 1011.0
5/23 8:40pm 245 4 G 7 64° 84% 13.1% 63.23° 59° 77° 58.4° - - 1011.0
5/23 8:30pm 234 3 G 6 64° 83% 12.9% 63.41° 59° 77° 58.4° - - 1011.0
5/23 8:20pm 227 4 G 7 65° 81% 12.8% 64.11° 59° 77° 58.4° - - 1011.0
5/23 8:10pm 243 5 G 8 66° 77% 12.7% 65.04° 58° 77° 58.4° - - 1011.0
5/23 8:00pm 244 4 G 7 67° 75% 12.6% 65.67° 58° 77° 58.4° - - 1011.0
5/23 7:50pm 254 4 G 6 67° 74% 12.5% 66.17° 58° 77° 58.4° - - 1011.0
5/23 7:40pm 266 4 G 6 67° 74% 12.4% 66.91° 58° 77° 58.4° - - 1011.0
5/23 7:30pm 254 4 G 6 67° 74% 12.3% 67.61° 58° 77° 58.4° - - 1011.0
5/23 7:20pm 246 5 G 8 67° 73% 12.3% 68.51° 58° 77° 58.4° - - 1010.0
5/23 7:10pm 249 5 G 7 68° 72% 12.3% 70.01° 58° 77° 58.4° - - 1010.0
5/23 7:00pm 243 5 G 7 68° 72% 12.2% 70.61° 58° 77° 58.4° - - 1010.0
5/23 6:50pm 238 4 G 6 68° 71% 12.2% 71.53° 58° 77° 58.4° - - 1010.0
5/23 6:40pm 246 5 G 7 68° 71% 12.3% 72.04° 58° 77° 58.4° - - 1010.0
5/23 6:30pm 245 5 G 8 68° 71% 12.2% 72.32° 58° 77° 58.4° - - 1010.0
5/23 6:20pm 245 6 G 9 68° 71% 12.2% 72.59° 58° 77° 58.4° - - 1010.0
5/23 6:10pm 249 7 G 10 69° 69% 12.1% 73.15° 58° 77° 58.4° - - 1010.0
5/23 6:00pm 246 6 G 10 70° 67% 12.1% 74.69° 58° 77° 58.4° - - 1010.0
5/23 5:50pm 246 6 G 10 70° 67% 12.2% 75.22° 58° 77° 58.4° - - 1011.0
5/23 5:40pm 254 6 G 9 70° 66% 12.2% 75.4° 58° 77° 58.4° - - 1010.0
5/23 5:30pm 254 5 G 10 69° 67% 12.2% 75.5° 58° 77° 58.4° - - 1011.0
5/23 5:20pm 253 7 G 12 69° 67% 12.2% 75.61° 58° 77° 58.4° - - 1011.0
5/23 5:10pm 249 8 G 12 69° 67% 12.2% 75.5° 58° 77° 58.4° - - 1011.0
5/23 5:00pm 252 7 G 11 69° 67% 12.2% 75.61° 57° 77° 58.4° - - 1011.0
5/23 4:50pm 254 9 G 15 69° 67% 12.2% 75.31° 57° 77° 58.4° - - 1011.0
5/23 4:40pm 242 8 G 13 70° 64% 12.3% 76.5° 57° 77° 58.4° - - 1011.0
5/23 4:30pm 244 8 G 13 71° 63% 12.3% 77.68° 57° 77° 58.4° - - 1011.0
5/23 4:20pm 230 9 G 13 71° 63% 12.3% 78.07° 58° 77° 58.4° - - 1011.0
5/23 4:10pm 234 8 G 13 71° 63% 12.3% 78.67° 58° 77° 58.4° - - 1011.0
5/23 4:00pm 234 9 G 14 71° 63% 12.4% 78.26° 58° 77° 58.4° - - 1011.0
5/23 3:50pm 235 9 G 14 72° 62% 12.5% 79.92° 58° 77° 58.4° - - 1012.0
5/23 3:40pm 235 8 G 12 73° 61% 12.6% 81.4° 59° 77° 58.4° - - 1012.0
5/23 3:30pm 231 8 G 15 74° 58% 12.6% 81.2° 58° 77° 58.4° - - 1012.0
5/23 3:20pm 248 5 G 9 75° 54% 12.8% 83.8° 58° 77° 58.4° - - 1012.0
5/23 3:10pm 270 4 G 7 76° 55% 13% 83.5° 58° 76.8° 58.4° - - 1012.0
5/23 3:00pm 9 3 G 8 75° 56% 13.1% 81° 58° 75.8° 58.4° - - 1012.0
5/23 2:50pm 326 3 G 7 74° 59% 13.1% 80.2° 58° 75.1° 58.4° - - 1012.0
5/23 2:40pm 314 4 G 8 71° 63% 13.2% 78.57° 58° 73.7° 58.4° - - 1012.0
5/23 2:30pm 336 3 G 8 71° 64% 13.3% 78.16° 58° 73.7° 58.4° - - 1012.0
5/23 2:20pm 356 5 G 10 70° 65% 13.3% 76.26° 58° 73.7° 58.4° - - 1012.0
5/23 2:10pm 322 5 G 11 69° 67% 13.4% 76.73° 58° 73.7° 58.4° - - 1012.0
5/23 2:00pm 297 6 G 11 68° 69% 13.5% 78.33° 58° 73.7° 58.4° - - 1012.0
5/23 1:50pm 303 6 G 13 68° 71% 13.6% 77.97° 58° 73.7° 58.4° - - 1013.0
5/23 1:40pm 300 7 G 12 68° 70% 13.6% 80.1° 58° 73.7° 58.4° - - 1013.0
5/23 1:30pm 314 7 G 12 70° 68% 13.6% 84.7° 59° 73.7° 58.4° - - 1012.0
5/23 1:20pm 302 6 G 12 69° 70% 13.7% 85.9° 59° 73.7° 58.4° - - 1012.0
5/23 1:10pm 308 6 G 12 70° 68% 13.6% 86.9° 59° 73.7° 58.4° - - 1012.0
5/23 1:00pm 303 6 G 13 70° 68% 13.7% 89.6° 59° 73.7° 58.4° - - 1013.0
5/23 12:50pm 293 6 G 12 71° 67% 13.8% 89.2° 59° 73.7° 58.4° - - 1013.0
5/23 12:40pm 288 6 G 13 69° 71% 13.8% 85.8° 59° 73.7° 58.4° - - 1012.0
5/23 12:30pm 255 9 G 16 68° 73% 13.7% 75.31° 59° 73.7° 58.4° - - 1013.0
5/23 12:20pm 260 9 G 16 67° 75% 13.7% 76.12° 59° 73.7° 58.4° - - 1013.0
5/23 12:10pm 258 11 G 16 67° 76% 13.8% 82.7° 59° 73.7° 58.4° - - 1013.0
5/23 12:00pm 257 9 G 16 67° 74% 13.9% 82° 59° 73.7° 58.4° - - 1013.0
5/23 11:50am 270 9 G 14 67° 75% 14% 77.97° 59° 73.7° 58.4° - - 1013.0
5/23 11:40am 267 9 G 15 67° 75% 14.1% 77.21° 59° 73.7° 58.4° - - 1013.0
5/23 11:30am 263 9 G 16 67° 75% 14.1% 76.87° 59° 73.7° 58.4° - - 1012.0
5/23 11:20am 261 9 G 14 67° 75% 14.2% 76.87° 59° 73.7° 58.4° - - 1012.0
5/23 11:10am 271 9 G 16 67° 77% 14.2% 76.1° 59° 73.7° 58.4° - - 1012.0
5/23 11:00am 258 10 G 17 67° 76% 14.3% 76.29° 59° 73.7° 58.4° - - 1012.0
5/23 10:50am 255 10 G 15 68° 75% 14.4% 76.64° 59° 73.7° 58.4° - - 1012.0
5/23 10:40am 248 9 G 14 68° 74% 14.5% 77.73° 59° 73.7° 58.4° - - 1012.0
5/23 10:30am 252 9 G 14 69° 72% 14.6% 77.23° 59° 73.7° 58.4° - - 1012.0
5/23 10:20am 246 8 G 12 70° 70% 14.7% 78.74° 59° 73.7° 58.4° - - 1012.0
5/23 10:10am 262 8 G 12 70° 68% 14.8% 79.18° 60° 73.7° 58.4° - - 1012.0
5/23 10:00am 236 7 G 12 73° 64% 14.9% 81.9° 60° 73.7° 58.4° - - 1012.0
5/23 9:50am 237 5 G 10 73° 63% 15% 82.6° 59° 73.6° 58.4° - - 1012.0
5/23 9:40am 227 3 G 6 72° 65% 15.2% 82.2° 59° 72.7° 58.4° - - 1012.0
5/23 9:30am 237 4 G 7 71° 66% 15.4% 78.93° 59° 71.7° 58.4° - - 1012.0
5/23 9:20am 103 2 G 6 70° 69% 15.8% 77.21° 59° 71.6° 58.4° - - 1012.0
5/23 9:10am 93 3 G 6 68° 72% 15.9% 75.44° 59° 68.9° 58.4° - - 1012.0
5/23 9:00am 94 3 G 5 68° 73% 16.2% 76.33° 59° 68.5° 58.4° - - 1012.0
5/23 8:50am 79 2 G 5 67° 75% 16.4% 76.05° 59° 67.7° 58.4° - - 1012.0
5/23 8:40am 90 2 G 4 66° 78% 16.6% 73.44° 59° 66.7° 58.4° - - 1012.0
5/23 8:30am 88 2 G 6 64° 81% 16.8% 72.39° 58° 65.1° 58.4° - - 1012.0
5/23 8:20am 96 2 G 4 63° 84% 16.9% 71.17° 58° 64.1° 58.4° - - 1012.0
5/23 8:10am 118 3 G 5 62° 87% 16.8% 67.65° 58° 62.7° 58.4° - - 1012.0
5/23 8:00am 83 3 G 6 62° 89% 17.1% 67.35° 58° 62.5° 58.4° - - 1012.0
5/23 7:50am 49 4 G 7 61° 89% 16.9% 65.56° 58° 61.6° 58.4° - - 1012.0
5/23 7:40am 37 5 G 8 61° 90% 17% 64.3° 58° 61.4° 58.4° - - 1012.0
5/23 7:30am 53 3 G 6 61° 90% 17% 63.5° 58° 61.4° 58.4° - - 1012.0
5/23 7:20am 42 4 G 7 61° 90% 17% 63.26° 58° 61.4° 58.4° - - 1012.0
5/23 7:10am 54 1 G 4 61° 91% 17.1% 62.54° 58° 61.2° 58.4° - - 1012.0
5/23 7:00am 335 1 G 4 60° 91% 17% 62.22° 58° 61.2° 58.4° - - 1012.0
5/23 6:50am 20 3 G 4 60° 92% 16.9% 61.62° 58° 61.2° 58.4° - - 1012.0
5/23 6:40am 13 2 G 4 60° 92% 16.9% 61.4° 58° 61.2° 58.4° - - 1012.0
5/23 6:30am 25 2 G 5 60° 91% 16.9% 61.36° 57° 61.2° 58.4° - - 1012.0
5/23 6:20am 25 2 G 6 60° 91% 17% 61.66° 58° 61.2° 58.4° - - 1012.0
5/23 6:10am 206 1 G 4 60° 92% 16.9% 61.62° 58° 61.2° 58.4° - - 1012.0
5/23 6:00am 220 0 G 2 60° 92% 16.9% 61.23° 58° 61.2° 58.4° - - 1012.0